Time;durP1;ratioP1;P1;durP2;ratioP2;P2;SDS_P1;SDS_P2;PMS_P1;PMS_P2;Temp;Humidity;BMP_temperature;BMP_pressure;BME280_temperature;BME280_humidity;BME280_pressure;Samples;Min_cycle;Max_cycle;Signal;HPM_P1;HPM_P2
2023/05/16 00:00:18;;;;;;;19.33;10.13;;;14.60;99.90;;;;;;4961825;28;20041;-73
2023/05/16 00:02:44;;;;;;;21.80;9.02;;;14.50;99.90;;;;;;4965188;28;20035;-73
2023/05/16 00:05:13;;;;;;;24.75;10.32;;;14.50;99.90;;;;;;4966649;28;20034;-74
2023/05/16 00:07:43;;;;;;;22.83;9.85;;;14.50;99.90;;;;;;4960589;28;20043;-74
2023/05/16 00:10:10;;;;;;;20.92;9.50;;;14.50;99.90;;;;;;4976525;28;20042;-73
2023/05/16 00:12:36;;;;;;;22.05;9.60;;;14.40;99.90;;;;;;4963741;28;20038;-73
2023/05/16 00:15:07;;;;;;;24.45;12.65;;;14.40;99.90;;;;;;4970803;28;20117;-73
2023/05/16 00:17:34;;;;;;;26.73;9.95;;;14.30;99.90;;;;;;4963645;28;20031;-73
2023/05/16 00:20:09;;;;;;;29.00;11.18;;;14.30;99.90;;;;;;4971071;28;20117;-74
2023/05/16 00:22:36;;;;;;;24.73;10.80;;;14.40;99.90;;;;;;4972833;28;20031;-74
2023/05/16 00:25:03;;;;;;;28.75;10.85;;;14.30;99.90;;;;;;4971826;28;20495;-74
2023/05/16 00:27:28;;;;;;;33.05;12.15;;;14.20;99.90;;;;;;4963676;28;20084;-73
2023/05/16 00:29:55;;;;;;;26.50;10.38;;;14.20;99.90;;;;;;4970218;28;20042;-73
2023/05/16 00:32:21;;;;;;;24.35;10.45;;;14.10;99.90;;;;;;4963392;28;20038;-74
2023/05/16 00:34:47;;;;;;;29.90;11.70;;;14.20;99.90;;;;;;4959695;28;20110;-75
2023/05/16 00:37:13;;;;;;;25.48;12.02;;;14.20;99.90;;;;;;4961607;28;20035;-74
2023/05/16 00:39:39;;;;;;;27.65;12.00;;;14.20;99.90;;;;;;4964612;28;20045;-74
2023/05/16 00:42:05;;;;;;;23.20;10.20;;;14.20;99.90;;;;;;4969865;28;20031;-73
2023/05/16 00:44:30;;;;;;;39.75;13.55;;;14.10;99.90;;;;;;4964561;28;20105;-73
2023/05/16 00:46:57;;;;;;;26.80;11.43;;;14.10;99.90;;;;;;4969244;28;20122;-73
2023/05/16 00:49:23;;;;;;;30.85;11.48;;;14.10;99.90;;;;;;4963896;28;20382;-75
2023/05/16 00:51:50;;;;;;;36.42;12.48;;;14.00;99.90;;;;;;4970347;28;20399;-74
2023/05/16 00:54:17;;;;;;;29.05;11.27;;;14.00;99.90;;;;;;4962936;28;20031;-74
2023/05/16 00:56:42;;;;;;;30.40;11.95;;;14.00;99.90;;;;;;4954490;28;20380;-74
2023/05/16 00:59:08;;;;;;;28.65;11.40;;;14.00;99.90;;;;;;4963876;28;20054;-74
2023/05/16 01:01:35;;;;;;;28.48;12.05;;;14.00;99.90;;;;;;4956236;28;20031;-73
2023/05/16 01:04:02;;;;;;;32.85;12.57;;;14.00;99.90;;;;;;4960048;28;20085;-74
2023/05/16 01:06:27;;;;;;;27.95;10.82;;;13.90;99.90;;;;;;4960972;28;20023;-74
2023/05/16 01:08:53;;;;;;;30.63;11.85;;;13.90;99.90;;;;;;4968272;28;20038;-74
2023/05/16 01:11:33;;;;;;;27.73;10.88;;;13.90;99.90;;;;;;4968432;28;20050;-74
2023/05/16 01:14:33;;;;;;;26.42;11.18;;;14.00;99.90;;;;;;4952056;28;20039;-73
2023/05/16 01:17:19;;;;;;;26.48;11.38;;;13.90;99.90;;;;;;4961318;28;20406;-74
2023/05/16 01:20:13;;;;;;;25.00;11.80;;;13.90;99.90;;;;;;4969736;28;20041;-74
2023/05/16 01:23:03;;;;;;;24.58;10.07;;;13.90;99.90;;;;;;4946103;28;20035;-75
2023/05/16 01:26:04;;;;;;;27.92;11.27;;;13.80;99.90;;;;;;4959168;28;20040;-75
2023/05/16 01:28:31;;;;;;;31.63;11.02;;;13.80;99.90;;;;;;4962818;28;20023;-75
2023/05/16 01:30:56;;;;;;;30.80;12.25;;;13.80;99.90;;;;;;4968161;28;20394;-76
2023/05/16 01:33:22;;;;;;;28.15;10.63;;;13.80;99.90;;;;;;4963617;28;20113;-76
2023/05/16 01:36:09;;;;;;;28.05;11.80;;;13.80;99.90;;;;;;4968824;28;20078;-75
2023/05/16 01:39:04;;;;;;;24.70;9.52;;;13.80;99.90;;;;;;4963386;28;20161;-75
2023/05/16 01:41:45;;;;;;;30.30;11.50;;;13.70;99.90;;;;;;4967578;28;20051;-75
2023/05/16 01:44:28;;;;;;;24.90;10.57;;;13.70;99.90;;;;;;4954537;28;20066;-76
2023/05/16 01:46:59;;;;;;;28.17;11.35;;;13.70;99.90;;;;;;4961343;28;20031;-75
2023/05/16 01:50:06;;;;;;;25.58;11.00;;;13.70;99.90;;;;;;4966827;28;20035;-76
2023/05/16 01:52:59;;;;;;;28.17;10.13;;;13.60;99.90;;;;;;4962628;28;20035;-76
2023/05/16 01:55:50;;;;;;;31.48;10.68;;;13.60;99.90;;;;;;4968741;28;20058;-76
2023/05/16 01:58:21;;;;;;;25.67;10.45;;;13.60;99.90;;;;;;4962252;28;20118;-75
2023/05/16 02:00:47;;;;;;;20.77;9.77;;;13.50;99.90;;;;;;4967212;28;20403;-75
2023/05/16 02:03:13;;;;;;;25.48;10.27;;;13.50;99.90;;;;;;4962212;28;20034;-75
2023/05/16 02:05:38;;;;;;;26.83;10.30;;;13.50;99.90;;;;;;4964594;28;20038;-76
2023/05/16 02:08:04;;;;;;;23.95;10.10;;;13.40;99.90;;;;;;4975100;28;20546;-76
2023/05/16 02:10:31;;;;;;;22.95;10.15;;;13.40;99.90;;;;;;4955101;28;20070;-76
2023/05/16 02:12:56;;;;;;;17.00;8.63;;;13.40;99.90;;;;;;4962048;28;20121;-75
2023/05/16 02:15:22;;;;;;;15.73;7.15;;;13.30;99.90;;;;;;4968805;28;20523;-76
2023/05/16 02:17:49;;;;;;;18.13;9.30;;;13.20;99.90;;;;;;4962086;28;20061;-76
2023/05/16 02:20:15;;;;;;;16.20;7.88;;;13.20;99.90;;;;;;4968593;28;20117;-75
2023/05/16 02:22:45;;;;;;;17.50;8.23;;;13.20;99.90;;;;;;4963182;28;20031;-76
2023/05/16 02:25:14;;;;;;;19.70;9.25;;;13.20;99.90;;;;;;4967749;28;20090;-75
2023/05/16 02:27:40;;;;;;;16.95;7.95;;;13.20;99.90;;;;;;4963097;28;20062;-75
2023/05/16 02:30:07;;;;;;;21.30;8.60;;;13.00;99.90;;;;;;4969140;28;20035;-75
2023/05/16 02:32:33;;;;;;;19.35;8.77;;;13.00;99.90;;;;;;4966368;28;20054;-75
2023/05/16 02:34:58;;;;;;;18.45;8.35;;;12.90;99.90;;;;;;4972289;28;20062;-76
2023/05/16 02:37:25;;;;;;;12.63;7.03;;;12.90;99.90;;;;;;4965085;28;20471;-76
2023/05/16 02:39:50;;;;;;;13.52;6.95;;;12.90;99.90;;;;;;4973959;28;20042;-75
2023/05/16 02:42:16;;;;;;;17.35;8.13;;;12.90;99.90;;;;;;4963854;28;20039;-76
2023/05/16 02:44:42;;;;;;;21.38;8.25;;;12.80;99.90;;;;;;4974454;28;20042;-76
2023/05/16 02:47:07;;;;;;;19.63;6.45;;;12.80;99.90;;;;;;4964207;28;20039;-76
2023/05/16 02:49:33;;;;;;;14.70;6.60;;;12.70;99.90;;;;;;4973867;28;20118;-75
2023/05/16 02:51:59;;;;;;;14.48;7.22;;;12.60;99.90;;;;;;4965162;28;20031;-76
2023/05/16 02:54:25;;;;;;;20.08;8.15;;;12.60;99.90;;;;;;4972916;28;20422;-76
2023/05/16 02:56:50;;;;;;;15.98;7.55;;;12.60;99.90;;;;;;4966124;28;20058;-76
2023/05/16 02:59:16;;;;;;;16.15;7.05;;;12.60;99.90;;;;;;4969837;28;20057;-75
2023/05/16 03:01:42;;;;;;;15.18;6.28;;;12.60;99.90;;;;;;4967343;28;20070;-75
2023/05/16 03:04:07;;;;;;;22.52;7.30;;;12.60;99.90;;;;;;4949745;28;20033;-75
2023/05/16 03:06:33;;;;;;;18.23;7.45;;;12.50;99.90;;;;;;4970150;28;20031;-76
2023/05/16 03:08:59;;;;;;;15.73;6.95;;;12.50;99.90;;;;;;4958865;28;20111;-75
2023/05/16 03:11:27;;;;;;;16.45;7.65;;;12.40;99.90;;;;;;4964761;28;20026;-75
2023/05/16 03:13:53;;;;;;;17.20;7.05;;;12.40;99.90;;;;;;4960077;28;20039;-75
2023/05/16 03:16:19;;;;;;;16.55;7.82;;;12.30;99.90;;;;;;4968753;28;20510;-76
2023/05/16 03:18:44;;;;;;;16.40;7.55;;;12.30;99.90;;;;;;4966522;28;20062;-75
2023/05/16 03:21:10;;;;;;;14.02;5.97;;;12.30;99.90;;;;;;4971017;28;20128;-72
2023/05/16 03:23:36;;;;;;;15.80;7.32;;;12.20;99.90;;;;;;4969419;23;20137;-78
2023/05/16 03:26:02;;;;;;;19.48;7.32;;;12.20;99.90;;;;;;4969560;28;20035;-78
2023/05/16 03:28:27;;;;;;;15.88;7.47;;;12.10;99.90;;;;;;4946841;28;20122;-78
2023/05/16 03:30:53;;;;;;;16.13;6.80;;;12.10;99.90;;;;;;4948635;29;20391;-78
2023/05/16 03:33:19;;;;;;;15.80;7.30;;;12.00;99.90;;;;;;4947517;29;20039;-77
2023/05/16 03:35:45;;;;;;;18.98;7.63;;;12.00;99.90;;;;;;4946279;28;20035;-77
2023/05/16 03:38:12;;;;;;;17.55;8.02;;;12.00;99.90;;;;;;4944876;28;20491;-77
2023/05/16 03:40:39;;;;;;;16.55;7.43;;;12.00;99.90;;;;;;4929081;29;20038;-78
2023/05/16 03:43:05;;;;;;;17.17;6.68;;;11.90;99.90;;;;;;4946733;28;20613;-78
2023/05/16 03:45:30;;;;;;;19.70;8.23;;;11.90;99.90;;;;;;4943442;28;20024;-78
2023/05/16 03:47:56;;;;;;;17.05;6.93;;;11.90;99.90;;;;;;4956146;28;20031;-78
2023/05/16 03:50:22;;;;;;;15.02;6.13;;;11.90;99.90;;;;;;4949044;28;20043;-78
2023/05/16 03:52:48;;;;;;;13.55;6.55;;;11.80;99.90;;;;;;4951293;28;20040;-78
2023/05/16 03:55:14;;;;;;;25.48;8.40;;;11.80;99.90;;;;;;4934512;29;20090;-78
2023/05/16 03:57:41;;;;;;;17.27;6.70;;;11.80;99.90;;;;;;4937668;29;20035;-78
2023/05/16 04:00:10;;;;;;;16.55;8.10;;;11.80;99.90;;;;;;4960774;28;20035;-77
2023/05/16 04:02:35;;;;;;;25.92;8.77;;;11.80;99.90;;;;;;4937725;29;20034;-77
2023/05/16 04:05:02;;;;;;;13.95;6.45;;;11.80;99.90;;;;;;4945595;28;20023;-77
2023/05/16 04:07:27;;;;;;;17.80;7.50;;;11.80;99.90;;;;;;4947010;28;20070;-77
2023/05/16 04:09:55;;;;;;;17.27;7.10;;;11.90;99.90;;;;;;4945120;29;20105;-77
2023/05/16 04:12:21;;;;;;;12.95;6.00;;;11.90;99.90;;;;;;4946840;28;20503;-76
2023/05/16 04:14:47;;;;;;;17.23;7.28;;;11.90;99.90;;;;;;4949048;28;20031;-75
2023/05/16 04:17:13;;;;;;;16.95;6.68;;;11.90;99.90;;;;;;4947344;28;20113;-75
2023/05/16 04:19:39;;;;;;;13.70;6.03;;;12.00;99.90;;;;;;4956623;28;20041;-74
2023/05/16 04:22:06;;;;;;;19.60;6.72;;;12.00;99.90;;;;;;4954494;28;20130;-75
2023/05/16 04:24:32;;;;;;;14.50;6.57;;;12.00;99.90;;;;;;4944461;29;20023;-75
2023/05/16 04:26:58;;;;;;;14.77;6.70;;;12.00;99.90;;;;;;4933324;29;20067;-76
2023/05/16 04:29:24;;;;;;;16.75;6.50;;;12.00;99.90;;;;;;4943299;29;20066;-77
2023/05/16 04:31:50;;;;;;;19.52;7.47;;;12.00;99.90;;;;;;4952376;28;20372;-75
2023/05/16 04:34:16;;;;;;;16.90;6.65;;;12.10;99.90;;;;;;4956925;28;20035;-75
2023/05/16 04:36:42;;;;;;;13.80;5.93;;;12.10;99.90;;;;;;4952349;29;20050;-75
2023/05/16 04:39:08;;;;;;;16.10;6.63;;;12.10;99.90;;;;;;4942164;28;20039;-75
2023/05/16 04:41:34;;;;;;;19.30;7.55;;;12.10;99.90;;;;;;4953439;29;20090;-75
2023/05/16 04:44:05;;;;;;;16.15;6.45;;;12.10;99.90;;;;;;4942358;29;20038;-74
2023/05/16 04:46:30;;;;;;;15.75;6.80;;;12.20;99.90;;;;;;4951457;29;20027;-76
2023/05/16 04:48:56;;;;;;;22.52;6.93;;;12.30;99.90;;;;;;4943478;29;20038;-75
2023/05/16 04:51:22;;;;;;;19.80;7.10;;;12.40;99.90;;;;;;4949849;28;20031;-75
2023/05/16 04:53:48;;;;;;;22.02;6.35;;;12.40;99.90;;;;;;4944695;28;20039;-75
2023/05/16 04:56:14;;;;;;;17.60;6.68;;;12.50;99.90;;;;;;4944700;28;20054;-76
2023/05/16 04:58:40;;;;;;;13.95;6.70;;;12.60;99.90;;;;;;4942805;29;20031;-75
2023/05/16 05:01:05;;;;;;;17.75;6.20;;;12.60;99.90;;;;;;4936422;29;20086;-75
2023/05/16 05:03:31;;;;;;;20.23;5.03;;;12.60;99.90;;;;;;4949580;29;20439;-74
2023/05/16 05:05:57;;;;;;;19.13;6.32;;;12.70;99.90;;;;;;4945600;28;20027;-72
2023/05/16 05:08:22;;;;;;;19.27;6.75;;;12.70;99.90;;;;;;4950661;29;20043;-71
2023/05/16 05:10:48;;;;;;;12.70;5.35;;;12.70;99.90;;;;;;4945474;28;20023;-72
2023/05/16 05:13:14;;;;;;;11.40;5.25;;;12.70;99.90;;;;;;4951615;28;20179;-73
2023/05/16 05:15:40;;;;;;;22.05;6.07;;;12.80;99.90;;;;;;4946422;28;20028;-74
2023/05/16 05:18:06;;;;;;;11.50;5.38;;;12.80;99.90;;;;;;4951778;29;20035;-73
2023/05/16 05:20:31;;;;;;;13.02;3.95;;;12.80;99.90;;;;;;4943481;29;20070;-73
2023/05/16 05:22:57;;;;;;;9.60;3.83;;;12.80;99.90;;;;;;4951629;29;20027;-73
2023/05/16 05:25:23;;;;;;;7.88;4.18;;;12.70;99.90;;;;;;4944042;29;20046;-73
2023/05/16 05:27:48;;;;;;;8.40;3.50;;;12.70;99.90;;;;;;4952364;29;20034;-73
2023/05/16 05:30:15;;;;;;;19.30;4.60;;;12.80;99.90;;;;;;4956646;28;20035;-73
2023/05/16 05:32:40;;;;;;;9.27;3.60;;;12.80;99.90;;;;;;4952069;28;20058;-73
2023/05/16 05:35:06;;;;;;;8.05;3.75;;;12.90;99.90;;;;;;4942750;28;20428;-73
2023/05/16 05:37:32;;;;;;;6.40;2.95;;;13.00;99.90;;;;;;4951982;29;20043;-73
2023/05/16 05:39:58;;;;;;;7.28;3.13;;;13.00;99.90;;;;;;4945287;29;20079;-73
2023/05/16 05:42:24;;;;;;;4.07;2.38;;;13.10;99.90;;;;;;4950603;29;20034;-73
2023/05/16 05:44:50;;;;;;;5.78;2.83;;;13.10;99.90;;;;;;4944929;29;20035;-73
2023/05/16 05:47:16;;;;;;;5.43;2.33;;;13.20;99.90;;;;;;4932173;29;20028;-73
2023/05/16 05:49:42;;;;;;;6.47;2.50;;;13.20;99.90;;;;;;4959954;28;20395;-73
2023/05/16 05:52:08;;;;;;;3.38;2.15;;;13.20;99.90;;;;;;4946433;29;20031;-73
2023/05/16 05:54:33;;;;;;;3.70;1.80;;;13.20;99.90;;;;;;4946323;28;20039;-72
2023/05/16 05:56:59;;;;;;;2.60;1.48;;;13.20;99.90;;;;;;4952329;28;20102;-75
2023/05/16 05:59:26;;;;;;;7.90;2.40;;;13.30;99.90;;;;;;4940704;29;20039;-70
2023/05/16 06:01:52;;;;;;;3.53;1.50;;;13.40;99.90;;;;;;4944729;29;20027;-75
2023/05/16 06:04:19;;;;;;;3.50;1.60;;;13.50;99.90;;;;;;4948378;28;20062;-71
2023/05/16 06:06:45;;;;;;;1.95;1.08;;;13.40;99.90;;;;;;4954626;29;20038;-74
2023/05/16 06:09:12;;;;;;;2.45;1.10;;;13.30;99.90;;;;;;4953297;28;20027;-71
2023/05/16 06:11:38;;;;;;;2.38;0.90;;;13.40;99.90;;;;;;4948799;29;20046;-72
2023/05/16 06:14:04;;;;;;;2.90;0.95;;;13.40;99.90;;;;;;4952554;29;20035;-73
2023/05/16 06:16:30;;;;;;;2.97;1.25;;;13.40;99.90;;;;;;4951637;28;20043;-72
2023/05/16 06:18:56;;;;;;;2.05;1.10;;;13.50;99.90;;;;;;4953481;29;20163;-72
2023/05/16 06:21:22;;;;;;;5.20;1.35;;;13.50;99.90;;;;;;4950711;28;20063;-72
2023/05/16 06:23:47;;;;;;;4.95;1.00;;;13.50;99.90;;;;;;4940153;29;20537;-72
2023/05/16 06:26:13;;;;;;;3.00;1.30;;;13.50;99.90;;;;;;4950579;28;20031;-72
2023/05/16 06:28:39;;;;;;;2.15;1.20;;;13.60;99.90;;;;;;4950456;29;20031;-71
2023/05/16 06:31:04;;;;;;;1.70;0.70;;;13.70;99.90;;;;;;4945250;28;20023;-71
2023/05/16 06:33:30;;;;;;;2.67;0.90;;;13.60;99.90;;;;;;4941165;29;20114;-72
2023/05/16 06:35:56;;;;;;;3.20;1.02;;;13.60;99.90;;;;;;4948991;28;20078;-72
2023/05/16 06:38:22;;;;;;;1.48;0.90;;;13.70;99.90;;;;;;4937827;29;20670;-72
2023/05/16 06:40:48;;;;;;;1.13;0.68;;;13.80;99.90;;;;;;4946852;28;20031;-73
2023/05/16 06:43:13;;;;;;;1.92;0.93;;;13.90;99.90;;;;;;4952833;28;20054;-72
2023/05/16 06:45:40;;;;;;;1.92;0.90;;;13.90;99.90;;;;;;4946792;28;20027;-72
2023/05/16 06:48:07;;;;;;;0.82;0.68;;;14.00;99.90;;;;;;4953639;28;20023;-72
2023/05/16 06:50:34;;;;;;;1.00;0.50;;;14.00;99.90;;;;;;4945944;29;20532;-72
2023/05/16 06:53:00;;;;;;;0.95;0.52;;;14.00;99.90;;;;;;4954434;28;20067;-72
2023/05/16 06:55:26;;;;;;;1.20;0.75;;;13.90;99.90;;;;;;4945258;29;20123;-72
2023/05/16 06:57:52;;;;;;;1.05;0.70;;;14.00;99.90;;;;;;4955071;29;20511;-72
2023/05/16 07:00:18;;;;;;;0.90;0.47;;;14.00;99.90;;;;;;4944000;29;20127;-71
2023/05/16 07:02:44;;;;;;;1.00;0.65;;;13.80;99.90;;;;;;4954446;28;20058;-71
2023/05/16 07:05:10;;;;;;;1.50;0.90;;;13.80;99.90;;;;;;4944376;28;20396;-72
2023/05/16 07:07:35;;;;;;;0.77;0.50;;;13.90;99.90;;;;;;4935395;29;20488;-71
2023/05/16 07:10:02;;;;;;;1.92;0.65;;;13.90;99.90;;;;;;4942753;29;20028;-71
2023/05/16 07:12:28;;;;;;;1.70;0.68;;;13.90;99.90;;;;;;4954097;29;20078;-71
2023/05/16 07:14:54;;;;;;;2.65;0.98;;;14.00;99.90;;;;;;4946752;29;20106;-72
2023/05/16 07:17:20;;;;;;;2.00;0.60;;;14.00;99.90;;;;;;4951094;28;20043;-71
2023/05/16 07:19:45;;;;;;;1.60;0.70;;;14.00;99.90;;;;;;4947562;29;20044;-72
2023/05/16 07:22:11;;;;;;;1.20;0.47;;;14.00;99.90;;;;;;4950818;29;20043;-73
2023/05/16 07:24:37;;;;;;;0.65;0.40;;;13.80;99.90;;;;;;4949223;29;20401;-72
2023/05/16 07:27:03;;;;;;;2.80;1.05;;;13.80;99.90;;;;;;4932742;29;20043;-72
2023/05/16 07:29:29;;;;;;;1.77;0.47;;;13.80;99.90;;;;;;4949819;29;20082;-71
2023/05/16 07:31:55;;;;;;;3.15;1.02;;;13.90;99.90;;;;;;4931598;29;20505;-72
2023/05/16 07:34:20;;;;;;;0.85;0.73;;;13.80;99.90;;;;;;4952577;28;20039;-73
2023/05/16 07:36:46;;;;;;;1.48;0.50;;;13.80;99.90;;;;;;4953030;29;20067;-72
2023/05/16 07:39:12;;;;;;;0.60;0.28;;;13.80;99.90;;;;;;4951179;28;20134;-72
2023/05/16 07:41:38;;;;;;;1.83;0.77;;;13.70;99.90;;;;;;4946528;29;20043;-72
2023/05/16 07:44:03;;;;;;;1.65;0.73;;;13.70;99.90;;;;;;4951683;29;20039;-72
2023/05/16 07:46:29;;;;;;;0.95;0.43;;;13.50;99.90;;;;;;4945924;29;20023;-73
2023/05/16 07:48:55;;;;;;;4.53;0.75;;;13.60;99.90;;;;;;4951746;28;20034;-72
2023/05/16 07:51:21;;;;;;;1.05;0.52;;;13.50;99.90;;;;;;4945636;29;20055;-73
2023/05/16 07:53:46;;;;;;;2.35;0.52;;;13.50;99.90;;;;;;4951873;28;20039;-73
2023/05/16 07:56:12;;;;;;;4.55;0.60;;;13.40;99.90;;;;;;4949005;29;20566;-74
2023/05/16 07:58:38;;;;;;;0.93;0.60;;;13.40;99.90;;;;;;4953115;28;20062;-73
2023/05/16 08:01:04;;;;;;;0.68;0.52;;;13.30;99.90;;;;;;4945323;28;20039;-73
2023/05/16 08:03:30;;;;;;;0.43;0.32;;;13.30;99.90;;;;;;4950613;28;20035;-73
2023/05/16 08:05:56;;;;;;;5.50;0.57;;;13.30;99.90;;;;;;4945752;29;20027;-73
2023/05/16 08:08:21;;;;;;;1.50;0.55;;;13.40;99.90;;;;;;4950052;29;20059;-73
2023/05/16 08:10:47;;;;;;;0.30;0.20;;;13.40;99.90;;;;;;4945600;28;20063;-73
2023/05/16 08:13:13;;;;;;;0.55;0.30;;;13.40;99.90;;;;;;4951568;29;20039;-73
2023/05/16 08:15:38;;;;;;;3.95;0.43;;;13.20;99.90;;;;;;4945418;28;20035;-74
2023/05/16 08:18:13;;;;;;;1.33;0.70;;;13.30;99.90;;;;;;4951905;28;20035;-73
2023/05/16 08:20:40;;;;;;;0.73;0.55;;;13.20;99.90;;;;;;4948462;29;20024;-73
2023/05/16 08:23:07;;;;;;;10.57;1.13;;;13.20;99.90;;;;;;4933923;29;20063;-72
2023/05/16 08:25:33;;;;;;;0.90;0.50;;;13.10;99.90;;;;;;4942874;29;20451;-72
2023/05/16 08:28:00;;;;;;;1.05;0.45;;;13.20;99.90;;;;;;4934075;29;20121;-72
2023/05/16 08:30:28;;;;;;;3.13;1.15;;;13.20;99.90;;;;;;4958425;28;20058;-72
2023/05/16 08:32:53;;;;;;;0.82;0.43;;;13.40;99.90;;;;;;4943834;28;20122;-72
2023/05/16 08:35:19;;;;;;;4.15;0.47;;;13.50;99.90;;;;;;4943069;29;20183;-72
2023/05/16 08:37:45;;;;;;;0.77;0.20;;;13.70;99.90;;;;;;4953027;28;20035;-72
2023/05/16 08:40:13;;;;;;;2.63;0.45;;;13.90;99.90;;;;;;4942895;28;20036;-73
2023/05/16 08:42:39;;;;;;;1.92;0.73;;;14.10;99.90;;;;;;4935686;29;20043;-72
2023/05/16 08:45:07;;;;;;;1.08;0.50;;;14.20;99.90;;;;;;4946520;29;20038;-72
2023/05/16 08:47:35;;;;;;;0.30;0.30;;;14.30;99.90;;;;;;4967287;28;20043;-72
2023/05/16 08:50:03;;;;;;;0.20;0.20;;;14.50;99.90;;;;;;4944464;29;20443;-72
2023/05/16 08:52:32;;;;;;;0.43;0.30;;;14.80;99.90;;;;;;4952169;29;20399;-72
2023/05/16 08:55:06;;;;;;;0.52;0.38;;;14.70;99.90;;;;;;4944295;28;20024;-72
2023/05/16 08:57:33;;;;;;;3.90;0.40;;;14.40;99.90;;;;;;4951103;29;20113;-72
2023/05/16 08:59:59;;;;;;;0.35;0.15;;;14.70;99.90;;;;;;4930121;29;20031;-73
2023/05/16 09:02:27;;;;;;;0.88;0.30;;;14.80;99.90;;;;;;4951265;29;20042;-73
2023/05/16 09:04:56;;;;;;;0.10;0.10;;;14.80;99.90;;;;;;4930454;29;20035;-73
2023/05/16 09:07:22;;;;;;;0.17;0.17;;;14.80;99.90;;;;;;4950827;29;20031;-73
2023/05/16 09:09:48;;;;;;;0.95;0.20;;;14.60;99.90;;;;;;4945307;29;20035;-73
2023/05/16 09:12:14;;;;;;;4.80;0.47;;;14.40;99.90;;;;;;4950119;29;20118;-73
2023/05/16 09:14:40;;;;;;;1.95;0.40;;;14.10;99.90;;;;;;4946580;28;20075;-73
2023/05/16 09:17:08;;;;;;;0.70;0.30;;;13.90;99.90;;;;;;4947263;29;20460;-73
2023/05/16 09:19:41;;;;;;;0.55;0.30;;;13.90;99.90;;;;;;4962057;28;20484;-73
2023/05/16 09:22:17;;;;;;;0.22;0.20;;;13.70;99.90;;;;;;4948304;29;20070;-73
2023/05/16 09:24:44;;;;;;;0.47;0.43;;;13.80;99.90;;;;;;4946436;29;20046;-73
2023/05/16 09:27:12;;;;;;;0.20;0.10;;;13.70;99.90;;;;;;4989142;23;20051;-70
2023/05/16 09:29:43;;;;;;;0.10;0.10;;;13.70;99.90;;;;;;4970687;28;20037;-70
2023/05/16 09:32:13;;;;;;;0.80;0.30;;;13.60;99.90;;;;;;4964726;28;20039;-71
2023/05/16 09:34:45;;;;;;;0.33;0.13;;;13.50;99.90;;;;;;4964113;28;20290;-71
2023/05/16 09:37:11;;;;;;;0.43;0.20;;;13.50;99.90;;;;;;4963594;28;20030;-71
2023/05/16 09:39:53;;;;;;;0.30;0.22;;;13.30;99.90;;;;;;4964375;28;20046;-70
2023/05/16 09:42:21;;;;;;;0.82;0.30;;;13.20;99.90;;;;;;4967024;28;20038;-70
2023/05/16 09:44:53;;;;;;;3.38;0.45;;;13.10;99.90;;;;;;4969083;28;20033;-70
2023/05/16 09:47:21;;;;;;;0.20;0.10;;;13.10;99.90;;;;;;4971467;28;20479;-71
2023/05/16 09:49:51;;;;;;;0.40;0.20;;;13.10;99.90;;;;;;4967297;28;20105;-70
2023/05/16 09:52:18;;;;;;;1.52;0.75;;;12.90;99.90;;;;;;4966452;28;20512;-70
2023/05/16 09:54:49;;;;;;;0.25;0.15;;;12.80;99.90;;;;;;4967251;28;20045;-70
2023/05/16 09:57:22;;;;;;;2.17;0.20;;;12.90;99.90;;;;;;4966455;28;20709;-70
2023/05/16 09:59:49;;;;;;;0.80;0.45;;;13.00;99.90;;;;;;4967438;28;20027;-70
2023/05/16 10:02:15;;;;;;;0.15;0.13;;;13.00;99.90;;;;;;4967621;28;20031;-70
2023/05/16 10:04:41;;;;;;;0.15;0.13;;;12.90;99.90;;;;;;4966564;28;20035;-71
2023/05/16 10:07:08;;;;;;;0.28;0.17;;;13.00;99.90;;;;;;4968085;28;20026;-71
2023/05/16 10:09:37;;;;;;;0.28;0.22;;;13.00;99.90;;;;;;4966682;28;20030;-70
2023/05/16 10:12:07;;;;;;;1.60;0.38;;;13.00;99.90;;;;;;4965559;28;20037;-70
2023/05/16 10:14:37;;;;;;;0.50;0.40;;;12.90;99.90;;;;;;4966918;28;20092;-71
2023/05/16 10:17:05;;;;;;;0.22;0.22;;;12.80;99.90;;;;;;4963964;28;20043;-71
2023/05/16 10:19:38;;;;;;;0.75;0.45;;;12.90;99.90;;;;;;4963220;28;20125;-71
2023/05/16 10:22:06;;;;;;;0.22;0.17;;;13.00;99.90;;;;;;4958026;28;20067;-71
2023/05/16 10:25:17;;;;;;;0.17;0.17;;;13.10;99.90;;;;;;4963411;28;20055;-71
2023/05/16 10:27:43;;;;;;;1.50;0.40;;;13.10;99.90;;;;;;4958846;28;20043;-71
2023/05/16 10:30:10;;;;;;;0.13;0.13;;;13.20;99.90;;;;;;4953759;28;20373;-71
2023/05/16 10:32:37;;;;;;;0.13;0.13;;;13.20;99.90;;;;;;4964228;28;20066;-70
2023/05/16 10:35:03;;;;;;;0.45;0.30;;;13.30;99.90;;;;;;4961790;28;20039;-70
2023/05/16 10:37:33;;;;;;;0.17;0.17;;;13.20;99.90;;;;;;4968522;28;20027;-71
2023/05/16 10:40:01;;;;;;;1.38;0.40;;;13.30;99.90;;;;;;4968037;28;20046;-71
2023/05/16 10:42:26;;;;;;;0.45;0.20;;;13.20;99.90;;;;;;4950182;28;20034;-71
2023/05/16 10:45:15;;;;;;;0.43;0.17;;;13.30;99.90;;;;;;4960876;28;20101;-71
2023/05/16 10:47:57;;;;;;;0.30;0.30;;;13.30;99.90;;;;;;4966962;28;20463;-71
2023/05/16 10:50:35;;;;;;;0.57;0.30;;;13.40;99.90;;;;;;4971358;28;20027;-69
2023/05/16 10:53:21;;;;;;;1.30;0.20;;;13.40;99.90;;;;;;4961776;28;20039;-70
2023/05/16 10:56:07;;;;;;;0.45;0.25;;;13.40;99.90;;;;;;4954724;28;20027;-70
2023/05/16 10:58:41;;;;;;;0.20;0.20;;;13.30;99.90;;;;;;4965404;28;20054;-70
2023/05/16 11:01:33;;;;;;;0.85;0.30;;;13.20;99.90;;;;;;4966729;28;20103;-70
2023/05/16 11:04:10;;;;;;;1.08;0.30;;;13.30;99.90;;;;;;4961228;28;20082;-70
2023/05/16 11:06:42;;;;;;;1.08;0.75;;;13.20;99.90;;;;;;4957008;28;20104;-70
2023/05/16 11:09:21;;;;;;;6.22;0.80;;;13.20;99.90;;;;;;4965540;28;20617;-70
2023/05/16 11:11:52;;;;;;;1.05;0.50;;;13.20;99.90;;;;;;4965914;28;20407;-70
2023/05/16 11:14:38;;;;;;;0.32;0.30;;;13.10;99.90;;;;;;4965805;28;20042;-70
2023/05/16 11:17:19;;;;;;;0.80;0.50;;;13.20;99.90;;;;;;4971142;28;20073;-70
2023/05/16 11:19:58;;;;;;;1.45;0.40;;;13.30;99.90;;;;;;4966420;28;20038;-70
2023/05/16 11:22:40;;;;;;;2.17;0.73;;;13.10;99.90;;;;;;4964879;28;20049;-70
2023/05/16 11:25:09;;;;;;;1.33;0.38;;;13.30;99.90;;;;;;4968408;28;20094;-70
2023/05/16 11:27:43;;;;;;;1.67;1.00;;;13.30;99.90;;;;;;4968615;28;20114;-70
2023/05/16 11:30:15;;;;;;;0.57;0.40;;;13.20;99.90;;;;;;4969713;28;20037;-70
2023/05/16 11:32:43;;;;;;;1.23;0.70;;;13.10;99.90;;;;;;4962436;28;20042;-70
2023/05/16 11:35:15;;;;;;;0.65;0.20;;;13.10;99.90;;;;;;4968656;28;20034;-70
2023/05/16 11:37:43;;;;;;;0.82;0.50;;;13.00;99.90;;;;;;4960955;28;20399;-70
2023/05/16 11:40:12;;;;;;;0.60;0.35;;;13.00;99.90;;;;;;4969450;28;20038;-70
2023/05/16 11:42:40;;;;;;;0.65;0.40;;;13.00;99.90;;;;;;4961511;28;20031;-70
2023/05/16 11:45:17;;;;;;;0.63;0.45;;;12.80;99.90;;;;;;4968092;28;20051;-70
2023/05/16 11:47:46;;;;;;;4.88;0.77;;;12.80;99.90;;;;;;4961679;28;20039;-70
2023/05/16 11:50:18;;;;;;;0.30;0.30;;;12.80;99.90;;;;;;4956423;28;20028;-70
2023/05/16 11:52:46;;;;;;;0.38;0.35;;;12.70;99.90;;;;;;4961045;28;20043;-71
2023/05/16 11:55:13;;;;;;;2.13;0.47;;;12.60;99.90;;;;;;4952760;28;20034;-70
2023/05/16 11:57:43;;;;;;;1.35;0.43;;;12.60;99.90;;;;;;4962494;28;20039;-70
2023/05/16 12:00:18;;;;;;;3.55;0.75;;;12.70;99.90;;;;;;4969295;28;20736;-70
2023/05/16 12:02:48;;;;;;;1.15;0.35;;;12.70;99.90;;;;;;4961166;28;20130;-70
2023/05/16 12:05:16;;;;;;;1.07;0.53;;;12.80;99.90;;;;;;4970058;28;20474;-70
2023/05/16 12:07:46;;;;;;;0.47;0.40;;;12.90;99.90;;;;;;4960080;28;20035;-70
2023/05/16 12:10:14;;;;;;;3.90;0.60;;;12.90;99.90;;;;;;4968639;28;20023;-70
2023/05/16 12:12:43;;;;;;;1.27;0.63;;;12.90;99.90;;;;;;4961863;28;20817;-70
2023/05/16 12:15:10;;;;;;;1.35;0.50;;;12.90;99.90;;;;;;4967857;28;20739;-70
2023/05/16 12:17:38;;;;;;;19.00;1.45;;;12.80;99.90;;;;;;4960247;28;20538;-70
2023/05/16 12:20:05;;;;;;;3.10;0.90;;;12.80;99.90;;;;;;4957156;28;20391;-70
2023/05/16 12:22:34;;;;;;;2.10;0.70;;;12.90;99.90;;;;;;4960104;28;20504;-70
2023/05/16 12:25:34;;;;;;;3.58;0.82;;;13.20;99.90;;;;;;4967774;28;20033;-70
2023/05/16 12:28:02;;;;;;;1.95;0.70;;;13.40;99.90;;;;;;4961331;28;20047;-70
2023/05/16 12:30:31;;;;;;;3.60;0.80;;;13.70;99.90;;;;;;4964054;28;20037;-70
2023/05/16 12:33:08;;;;;;;1.55;0.55;;;14.30;99.90;;;;;;4969434;28;20396;-70
2023/05/16 12:35:37;;;;;;;2.65;0.70;;;14.70;99.90;;;;;;4975070;28;20097;-70
2023/05/16 12:38:04;;;;;;;2.53;1.05;;;14.80;99.90;;;;;;4968360;28;20035;-70
2023/05/16 12:40:30;;;;;;;0.82;0.57;;;14.90;99.90;;;;;;4962265;28;20111;-70
2023/05/16 12:42:56;;;;;;;3.60;0.90;;;15.10;99.90;;;;;;4945242;28;20121;-70
2023/05/16 12:45:23;;;;;;;4.32;0.70;;;15.10;99.90;;;;;;4968572;28;20035;-70
2023/05/16 12:47:49;;;;;;;2.03;0.57;;;15.40;99.90;;;;;;4966741;28;20102;-70